sensor_id;sensor_type;location;lat;lon;timestamp;pressure;altitude;pressure_sealevel;temperature;humidity
12178;BME280;6152;48.728;9.256;2023-03-14T00:01:26;95566.78;;;8.41;100.00
12178;BME280;6152;48.728;9.256;2023-03-14T00:03:52;95523.53;;;8.42;100.00
12178;BME280;6152;48.728;9.256;2023-03-14T00:06:19;95509.28;;;8.47;100.00
12178;BME280;6152;48.728;9.256;2023-03-14T00:08:45;95497.97;;;8.48;100.00
12178;BME280;6152;48.728;9.256;2023-03-14T00:11:15;95500.56;;;8.48;100.00
12178;BME280;6152;48.728;9.256;2023-03-14T00:13:41;95517.19;;;8.46;100.00
12178;BME280;6152;48.728;9.256;2023-03-14T00:16:10;95511.31;;;8.44;100.00
12178;BME280;6152;48.728;9.256;2023-03-14T00:18:37;95494.00;;;8.44;100.00
12178;BME280;6152;48.728;9.256;2023-03-14T00:21:05;95498.94;;;8.47;100.00
12178;BME280;6152;48.728;9.256;2023-03-14T00:23:33;95509.75;;;8.41;100.00
12178;BME280;6152;48.728;9.256;2023-03-14T00:26:00;95496.78;;;8.41;100.00
12178;BME280;6152;48.728;9.256;2023-03-14T00:28:27;95487.38;;;8.40;100.00
12178;BME280;6152;48.728;9.256;2023-03-14T00:30:54;95465.69;;;8.41;100.00
12178;BME280;6152;48.728;9.256;2023-03-14T00:33:20;95471.94;;;8.39;100.00
12178;BME280;6152;48.728;9.256;2023-03-14T00:35:56;95486.56;;;8.40;100.00
12178;BME280;6152;48.728;9.256;2023-03-14T00:38:23;95486.91;;;8.35;100.00
12178;BME280;6152;48.728;9.256;2023-03-14T00:40:53;95495.28;;;8.39;100.00
12178;BME280;6152;48.728;9.256;2023-03-14T00:43:21;95494.44;;;8.38;100.00
12178;BME280;6152;48.728;9.256;2023-03-14T00:45:48;95491.16;;;8.36;100.00
12178;BME280;6152;48.728;9.256;2023-03-14T00:48:14;95489.25;;;8.38;100.00
12178;BME280;6152;48.728;9.256;2023-03-14T00:50:41;95484.06;;;8.38;100.00
12178;BME280;6152;48.728;9.256;2023-03-14T00:53:07;95484.06;;;8.38;100.00
12178;BME280;6152;48.728;9.256;2023-03-14T00:55:37;95485.97;;;8.36;100.00
12178;BME280;6152;48.728;9.256;2023-03-14T00:58:03;95492.00;;;8.37;100.00
12178;BME280;6152;48.728;9.256;2023-03-14T01:00:29;95493.06;;;8.34;100.00
12178;BME280;6152;48.728;9.256;2023-03-14T01:02:55;95494.69;;;8.35;100.00
12178;BME280;6152;48.728;9.256;2023-03-14T01:05:24;95499.88;;;8.35;100.00
12178;BME280;6152;48.728;9.256;2023-03-14T01:07:50;95506.00;;;8.34;100.00
12178;BME280;6152;48.728;9.256;2023-03-14T01:10:17;95512.59;;;8.38;100.00
12178;BME280;6152;48.728;9.256;2023-03-14T01:12:43;95510.00;;;8.38;100.00
12178;BME280;6152;48.728;9.256;2023-03-14T01:15:09;95505.53;;;8.40;100.00
12178;BME280;6152;48.728;9.256;2023-03-14T01:17:35;95495.75;;;8.44;100.00
12178;BME280;6152;48.728;9.256;2023-03-14T01:20:04;95494.00;;;8.44;100.00
12178;BME280;6152;48.728;9.256;2023-03-14T01:22:31;95486.31;;;8.43;100.00
12178;BME280;6152;48.728;9.256;2023-03-14T01:24:57;95487.84;;;8.45;100.00
12178;BME280;6152;48.728;9.256;2023-03-14T01:27:23;95481.72;;;8.46;100.00
12178;BME280;6152;48.728;9.256;2023-03-14T01:29:49;95466.41;;;8.43;100.00
12178;BME280;6152;48.728;9.256;2023-03-14T01:32:15;95463.09;;;8.41;100.00
12178;BME280;6152;48.728;9.256;2023-03-14T01:34:41;95463.34;;;8.38;100.00
12178;BME280;6152;48.728;9.256;2023-03-14T01:37:07;95461.91;;;8.45;100.00
12178;BME280;6152;48.728;9.256;2023-03-14T01:39:34;95459.56;;;8.42;100.00
12178;BME280;6152;48.728;9.256;2023-03-14T01:42:00;95459.00;;;8.39;100.00
12178;BME280;6152;48.728;9.256;2023-03-14T01:44:27;95442.59;;;8.38;100.00
12178;BME280;6152;48.728;9.256;2023-03-14T01:46:53;95442.59;;;8.38;100.00
12178;BME280;6152;48.728;9.256;2023-03-14T01:49:34;95424.72;;;8.35;100.00
12178;BME280;6152;48.728;9.256;2023-03-14T01:52:22;95428.97;;;8.36;100.00
12178;BME280;6152;48.728;9.256;2023-03-14T01:54:58;95427.06;;;8.38;100.00
12178;BME280;6152;48.728;9.256;2023-03-14T01:57:29;95423.53;;;8.39;100.00
12178;BME280;6152;48.728;9.256;2023-03-14T02:00:05;95406.56;;;8.35;100.00
12178;BME280;6152;48.728;9.256;2023-03-14T02:02:38;95411.50;;;8.38;100.00
12178;BME280;6152;48.728;9.256;2023-03-14T02:05:06;95413.66;;;8.33;100.00
12178;BME280;6152;48.728;9.256;2023-03-14T02:07:36;95401.63;;;8.32;100.00
12178;BME280;6152;48.728;9.256;2023-03-14T02:10:06;95407.06;;;8.29;100.00
12178;BME280;6152;48.728;9.256;2023-03-14T02:12:33;95416.81;;;8.26;100.00
12178;BME280;6152;48.728;9.256;2023-03-14T02:15:00;95410.81;;;8.25;100.00
12178;BME280;6152;48.728;9.256;2023-03-14T02:17:26;95398.56;;;8.27;100.00
12178;BME280;6152;48.728;9.256;2023-03-14T02:22:22;95395.50;;;8.22;100.00
12178;BME280;6152;48.728;9.256;2023-03-14T02:25:00;95396.78;;;8.28;100.00
12178;BME280;6152;48.728;9.256;2023-03-14T02:27:29;95393.16;;;8.30;100.00
12178;BME280;6152;48.728;9.256;2023-03-14T02:30:13;95394.69;;;8.33;100.00
12178;BME280;6152;48.728;9.256;2023-03-14T02:32:43;95386.31;;;8.29;100.00
12178;BME280;6152;48.728;9.256;2023-03-14T02:35:14;95378.78;;;8.26;100.00
12178;BME280;6152;48.728;9.256;2023-03-14T02:38:24;95371.94;;;8.25;100.00
12178;BME280;6152;48.728;9.256;2023-03-14T02:40:52;95377.84;;;8.27;100.00
12178;BME280;6152;48.728;9.256;2023-03-14T02:43:18;95381.59;;;8.23;100.00
12178;BME280;6152;48.728;9.256;2023-03-14T02:45:48;95380.63;;;8.24;100.00
12178;BME280;6152;48.728;9.256;2023-03-14T02:51:30;95371.72;;;8.28;100.00
12178;BME280;6152;48.728;9.256;2023-03-14T02:53:57;95360.41;;;8.29;100.00
12178;BME280;6152;48.728;9.256;2023-03-14T02:56:23;95343.09;;;8.30;100.00
12178;BME280;6152;48.728;9.256;2023-03-14T02:58:49;95342.97;;;8.31;100.00
12178;BME280;6152;48.728;9.256;2023-03-14T03:01:15;95343.69;;;8.33;100.00
12178;BME280;6152;48.728;9.256;2023-03-14T03:03:42;95344.16;;;8.27;100.00
12178;BME280;6152;48.728;9.256;2023-03-14T03:06:08;95334.59;;;8.28;100.00
12178;BME280;6152;48.728;9.256;2023-03-14T03:08:34;95346.75;;;8.27;100.00
12178;BME280;6152;48.728;9.256;2023-03-14T03:11:00;95348.41;;;8.28;100.00
12178;BME280;6152;48.728;9.256;2023-03-14T03:13:26;95346.53;;;8.30;100.00
12178;BME280;6152;48.728;9.256;2023-03-14T03:15:53;95330.00;;;8.31;100.00
12178;BME280;6152;48.728;9.256;2023-03-14T03:18:19;95325.78;;;8.30;100.00
12178;BME280;6152;48.728;9.256;2023-03-14T03:20:45;95312.13;;;8.28;100.00
12178;BME280;6152;48.728;9.256;2023-03-14T03:23:12;95303.41;;;8.29;100.00
12178;BME280;6152;48.728;9.256;2023-03-14T03:25:38;95299.63;;;8.33;100.00
12178;BME280;6152;48.728;9.256;2023-03-14T03:28:05;95304.00;;;8.33;100.00
12178;BME280;6152;48.728;9.256;2023-03-14T03:30:37;95311.66;;;8.34;100.00
12178;BME280;6152;48.728;9.256;2023-03-14T03:33:04;95302.91;;;8.35;100.00
12178;BME280;6152;48.728;9.256;2023-03-14T03:35:30;95307.16;;;8.36;100.00
12178;BME280;6152;48.728;9.256;2023-03-14T03:37:56;95291.47;;;8.38;100.00
12178;BME280;6152;48.728;9.256;2023-03-14T03:40:22;95287.94;;;8.39;100.00
12178;BME280;6152;48.728;9.256;2023-03-14T03:42:48;95278.41;;;8.39;100.00
12178;BME280;6152;48.728;9.256;2023-03-14T03:45:14;95275.81;;;8.39;100.00
12178;BME280;6152;48.728;9.256;2023-03-14T03:47:40;95284.25;;;8.41;100.00
12178;BME280;6152;48.728;9.256;2023-03-14T03:50:07;95287.09;;;8.38;100.00
12178;BME280;6152;48.728;9.256;2023-03-14T03:52:33;95282.19;;;8.35;100.00
12178;BME280;6152;48.728;9.256;2023-03-14T03:54:59;95277.13;;;8.34;100.00
12178;BME280;6152;48.728;9.256;2023-03-14T03:57:26;95283.94;;;8.35;100.00
12178;BME280;6152;48.728;9.256;2023-03-14T03:59:52;95282.44;;;8.32;100.00
12178;BME280;6152;48.728;9.256;2023-03-14T04:02:18;95279.72;;;8.34;100.00
12178;BME280;6152;48.728;9.256;2023-03-14T04:04:44;95281.34;;;8.35;100.00
12178;BME280;6152;48.728;9.256;2023-03-14T04:07:10;95276.31;;;8.33;100.00
12178;BME280;6152;48.728;9.256;2023-03-14T04:09:39;95274.97;;;8.28;100.00
12178;BME280;6152;48.728;9.256;2023-03-14T04:12:05;95282.91;;;8.26;100.00
12178;BME280;6152;48.728;9.256;2023-03-14T04:14:31;95271.59;;;8.27;100.00
12178;BME280;6152;48.728;9.256;2023-03-14T04:16:57;95282.44;;;8.21;100.00
12178;BME280;6152;48.728;9.256;2023-03-14T04:19:23;95270.06;;;8.25;100.00
12178;BME280;6152;48.728;9.256;2023-03-14T04:21:49;95269.38;;;8.23;100.00
12178;BME280;6152;48.728;9.256;2023-03-14T04:24:16;95272.06;;;8.21;100.00
12178;BME280;6152;48.728;9.256;2023-03-14T04:26:42;95281.50;;;8.22;100.00
12178;BME280;6152;48.728;9.256;2023-03-14T04:29:08;95273.84;;;8.21;100.00
12178;BME280;6152;48.728;9.256;2023-03-14T04:31:34;95270.66;;;8.17;100.00
12178;BME280;6152;48.728;9.256;2023-03-14T04:34:03;95279.50;;;8.14;100.00
12178;BME280;6152;48.728;9.256;2023-03-14T04:36:29;95276.00;;;8.16;100.00
12178;BME280;6152;48.728;9.256;2023-03-14T04:38:55;95276.09;;;8.14;100.00
12178;BME280;6152;48.728;9.256;2023-03-14T04:41:21;95266.13;;;8.09;100.00
12178;BME280;6152;48.728;9.256;2023-03-14T04:43:47;95265.06;;;8.12;100.00
12178;BME280;6152;48.728;9.256;2023-03-14T04:46:13;95260.94;;;8.09;100.00
12178;BME280;6152;48.728;9.256;2023-03-14T04:48:40;95260.38;;;8.06;100.00
12178;BME280;6152;48.728;9.256;2023-03-14T04:51:06;95251.88;;;8.04;100.00
12178;BME280;6152;48.728;9.256;2023-03-14T04:53:32;95245.31;;;8.00;100.00
12178;BME280;6152;48.728;9.256;2023-03-14T04:56:00;95246.50;;;7.96;100.00
12178;BME280;6152;48.728;9.256;2023-03-14T04:58:26;95250.16;;;7.93;100.00
12178;BME280;6152;48.728;9.256;2023-03-14T05:00:52;95244.72;;;7.96;100.00
12178;BME280;6152;48.728;9.256;2023-03-14T05:03:19;95239.00;;;7.93;100.00
12178;BME280;6152;48.728;9.256;2023-03-14T05:05:45;95237.59;;;7.89;100.00
12178;BME280;6152;48.728;9.256;2023-03-14T05:08:11;95238.78;;;7.85;100.00
12178;BME280;6152;48.728;9.256;2023-03-14T05:10:37;95232.78;;;7.84;100.00
12178;BME280;6152;48.728;9.256;2023-03-14T05:13:04;95224.41;;;7.81;100.00
12178;BME280;6152;48.728;9.256;2023-03-14T05:15:30;95232.28;;;7.79;100.00
12178;BME280;6152;48.728;9.256;2023-03-14T05:17:56;95223.59;;;7.80;100.00
12178;BME280;6152;48.728;9.256;2023-03-14T05:20:22;95227.00;;;7.81;100.00
12178;BME280;6152;48.728;9.256;2023-03-14T05:22:48;95229.34;;;7.84;100.00
12178;BME280;6152;48.728;9.256;2023-03-14T05:25:14;95227.69;;;7.83;100.00
12178;BME280;6152;48.728;9.256;2023-03-14T05:27:40;95229.34;;;7.84;100.00
12178;BME280;6152;48.728;9.256;2023-03-14T05:30:07;95225.25;;;7.81;100.00
12178;BME280;6152;48.728;9.256;2023-03-14T05:32:33;95226.91;;;7.82;100.00
12178;BME280;6152;48.728;9.256;2023-03-14T05:34:59;95217.34;;;7.83;100.00
12178;BME280;6152;48.728;9.256;2023-03-14T05:37:26;95225.34;;;7.80;100.00
12178;BME280;6152;48.728;9.256;2023-03-14T05:39:52;95216.66;;;7.81;100.00
12178;BME280;6152;48.728;9.256;2023-03-14T05:42:19;95220.66;;;7.85;100.00
12178;BME280;6152;48.728;9.256;2023-03-14T05:44:45;95214.97;;;7.91;100.00
12178;BME280;6152;48.728;9.256;2023-03-14T05:47:11;95212.28;;;7.92;100.00
12178;BME280;6152;48.728;9.256;2023-03-14T05:49:37;95206.00;;;7.95;100.00
12178;BME280;6152;48.728;9.256;2023-03-14T05:52:13;95201.41;;;7.98;100.00
12178;BME280;6152;48.728;9.256;2023-03-14T05:54:39;95183.03;;;8.01;100.00
12178;BME280;6152;48.728;9.256;2023-03-14T05:57:05;95186.44;;;8.02;100.00
12178;BME280;6152;48.728;9.256;2023-03-14T05:59:31;95195.16;;;8.01;100.00
12178;BME280;6152;48.728;9.256;2023-03-14T06:01:58;95191.06;;;7.98;100.00
12178;BME280;6152;48.728;9.256;2023-03-14T06:04:24;95191.88;;;7.99;100.00
12178;BME280;6152;48.728;9.256;2023-03-14T06:06:50;95188.31;;;8.00;100.00
12178;BME280;6152;48.728;9.256;2023-03-14T06:09:17;95204.13;;;7.97;100.00
12178;BME280;6152;48.728;9.256;2023-03-14T06:11:45;95203.06;;;7.99;100.00
12178;BME280;6152;48.728;9.256;2023-03-14T06:14:12;95199.66;;;7.99;100.00
12178;BME280;6152;48.728;9.256;2023-03-14T06:16:38;95195.41;;;7.98;100.00
12178;BME280;6152;48.728;9.256;2023-03-14T06:19:04;95194.31;;;8.00;100.00
12178;BME280;6152;48.728;9.256;2023-03-14T06:21:30;95191.38;;;8.05;100.00
12178;BME280;6152;48.728;9.256;2023-03-14T06:23:57;95190.81;;;8.01;100.00
12178;BME280;6152;48.728;9.256;2023-03-14T06:26:23;95200.09;;;8.04;100.00
12178;BME280;6152;48.728;9.256;2023-03-14T06:28:49;95196.56;;;8.05;100.00
12178;BME280;6152;48.728;9.256;2023-03-14T06:31:17;95203.44;;;8.16;100.00
12178;BME280;6152;48.728;9.256;2023-03-14T06:33:43;95209.22;;;8.19;100.00
12178;BME280;6152;48.728;9.256;2023-03-14T06:36:09;95200.34;;;8.22;100.00
12178;BME280;6152;48.728;9.256;2023-03-14T06:38:35;95192.31;;;8.25;100.00
12178;BME280;6152;48.728;9.256;2023-03-14T06:41:05;95193.16;;;8.25;100.00
12178;BME280;6152;48.728;9.256;2023-03-14T06:43:32;95194.09;;;8.24;100.00
12178;BME280;6152;48.728;9.256;2023-03-14T06:45:58;95205.53;;;8.22;100.00
12178;BME280;6152;48.728;9.256;2023-03-14T06:48:24;95199.91;;;8.17;100.00
12178;BME280;6152;48.728;9.256;2023-03-14T06:50:50;95201.53;;;8.18;100.00
12178;BME280;6152;48.728;9.256;2023-03-14T06:53:16;95189.56;;;8.17;100.00
12178;BME280;6152;48.728;9.256;2023-03-14T06:55:43;95193.41;;;8.22;100.00
12178;BME280;6152;48.728;9.256;2023-03-14T06:58:09;95201.06;;;8.24;100.00
12178;BME280;6152;48.728;9.256;2023-03-14T07:00:35;95188.56;;;8.29;100.00
12178;BME280;6152;48.728;9.256;2023-03-14T07:03:01;95197.13;;;8.40;100.00
12178;BME280;6152;48.728;9.256;2023-03-14T07:05:28;95193.38;;;8.54;100.00
12178;BME280;6152;48.728;9.256;2023-03-14T07:07:54;95211.47;;;8.65;100.00
12178;BME280;6152;48.728;9.256;2023-03-14T07:10:20;95197.84;;;8.73;100.00
12178;BME280;6152;48.728;9.256;2023-03-14T07:12:46;95200.03;;;8.77;100.00
12178;BME280;6152;48.728;9.256;2023-03-14T07:15:13;95208.66;;;8.78;100.00
12178;BME280;6152;48.728;9.256;2023-03-14T07:17:39;95205.13;;;8.79;100.00
12178;BME280;6152;48.728;9.256;2023-03-14T07:20:05;95212.13;;;8.88;100.00
12178;BME280;6152;48.728;9.256;2023-03-14T07:22:32;95206.25;;;8.86;100.00
12178;BME280;6152;48.728;9.256;2023-03-14T07:24:58;95211.03;;;8.90;100.00
12178;BME280;6152;48.728;9.256;2023-03-14T07:27:25;95211.28;;;8.87;100.00
12178;BME280;6152;48.728;9.256;2023-03-14T07:29:51;95214.03;;;8.86;100.00
12178;BME280;6152;48.728;9.256;2023-03-14T07:32:17;95211.66;;;8.83;100.00
12178;BME280;6152;48.728;9.256;2023-03-14T07:34:43;95224.41;;;8.86;100.00
12178;BME280;6152;48.728;9.256;2023-03-14T07:37:09;95218.69;;;8.92;100.00
12178;BME280;6152;48.728;9.256;2023-03-14T07:39:36;95225.00;;;8.99;100.00
12178;BME280;6152;48.728;9.256;2023-03-14T07:42:02;95222.44;;;9.08;100.00
12178;BME280;6152;48.728;9.256;2023-03-14T07:44:28;95218.38;;;9.16;100.00
12178;BME280;6152;48.728;9.256;2023-03-14T07:46:54;95222.66;;;9.26;100.00
12178;BME280;6152;48.728;9.256;2023-03-14T07:49:21;95220.47;;;9.31;100.00
12178;BME280;6152;48.728;9.256;2023-03-14T07:51:50;95218.31;;;9.36;100.00
12178;BME280;6152;48.728;9.256;2023-03-14T07:54:16;95222.44;;;9.48;100.00
12178;BME280;6152;48.728;9.256;2023-03-14T07:56:44;95228.53;;;9.68;100.00
12178;BME280;6152;48.728;9.256;2023-03-14T07:59:10;95218.97;;;9.97;100.00
12178;BME280;6152;48.728;9.256;2023-03-14T08:01:36;95232.97;;;10.25;100.00
12178;BME280;6152;48.728;9.256;2023-03-14T08:04:02;95224.19;;;10.55;100.00
12178;BME280;6152;48.728;9.256;2023-03-14T08:06:29;95218.13;;;10.74;100.00
12178;BME280;6152;48.728;9.256;2023-03-14T08:08:55;95224.41;;;10.81;100.00
12178;BME280;6152;48.728;9.256;2023-03-14T08:11:21;95223.72;;;10.88;100.00
12178;BME280;6152;48.728;9.256;2023-03-14T08:13:47;95226.00;;;11.01;100.00
12178;BME280;6152;48.728;9.256;2023-03-14T08:16:16;95223.47;;;11.19;100.00
12178;BME280;6152;48.728;9.256;2023-03-14T08:18:43;95218.16;;;11.47;100.00
12178;BME280;6152;48.728;9.256;2023-03-14T08:21:10;95221.38;;;11.59;100.00
12178;BME280;6152;48.728;9.256;2023-03-14T08:23:36;95217.47;;;11.73;100.00
12178;BME280;6152;48.728;9.256;2023-03-14T08:26:02;95215.44;;;11.94;100.00
12178;BME280;6152;48.728;9.256;2023-03-14T08:28:28;95208.97;;;11.98;100.00
12178;BME280;6152;48.728;9.256;2023-03-14T08:30:57;95218.19;;;11.92;100.00
12178;BME280;6152;48.728;9.256;2023-03-14T08:33:24;95209.25;;;11.95;100.00
12178;BME280;6152;48.728;9.256;2023-03-14T08:35:55;95212.38;;;11.98;100.00
12178;BME280;6152;48.728;9.256;2023-03-14T08:38:21;95210.59;;;11.81;100.00
12178;BME280;6152;48.728;9.256;2023-03-14T08:40:47;95215.88;;;11.72;100.00
12178;BME280;6152;48.728;9.256;2023-03-14T08:43:15;95211.47;;;11.62;100.00
12178;BME280;6152;48.728;9.256;2023-03-14T08:45:41;95215.88;;;11.72;100.00
12178;BME280;6152;48.728;9.256;2023-03-14T08:48:07;95195.84;;;11.90;100.00
12178;BME280;6152;48.728;9.256;2023-03-14T08:50:33;95193.03;;;12.19;100.00
12178;BME280;6152;48.728;9.256;2023-03-14T08:52:59;95210.44;;;12.36;99.71
12178;BME280;6152;48.728;9.256;2023-03-14T08:55:27;95215.00;;;12.51;97.53
12178;BME280;6152;48.728;9.256;2023-03-14T08:57:53;95207.41;;;12.66;94.78
12178;BME280;6152;48.728;9.256;2023-03-14T09:00:20;95207.31;;;12.76;93.51
12178;BME280;6152;48.728;9.256;2023-03-14T09:02:46;95217.47;;;12.79;92.78
12178;BME280;6152;48.728;9.256;2023-03-14T09:05:12;95204.47;;;12.87;96.52
12178;BME280;6152;48.728;9.256;2023-03-14T09:07:39;95223.75;;;12.94;97.48
12178;BME280;6152;48.728;9.256;2023-03-14T09:10:06;95236.88;;;13.02;94.08
12178;BME280;6152;48.728;9.256;2023-03-14T09:12:33;95262.41;;;13.34;95.10
12178;BME280;6152;48.728;9.256;2023-03-14T09:14:59;95234.38;;;13.44;96.13
12178;BME280;6152;48.728;9.256;2023-03-14T09:17:26;95242.22;;;13.52;97.87
12178;BME280;6152;48.728;9.256;2023-03-14T09:19:52;95236.72;;;13.29;97.05
12178;BME280;6152;48.728;9.256;2023-03-14T09:22:18;95250.88;;;13.44;100.00
12178;BME280;6152;48.728;9.256;2023-03-14T09:24:44;95237.84;;;13.01;100.00
12178;BME280;6152;48.728;9.256;2023-03-14T09:27:10;95247.81;;;12.80;100.00
12178;BME280;6152;48.728;9.256;2023-03-14T09:29:36;95249.00;;;12.85;100.00
12178;BME280;6152;48.728;9.256;2023-03-14T09:32:02;95247.56;;;13.42;98.12
12178;BME280;6152;48.728;9.256;2023-03-14T09:34:29;95257.41;;;14.56;87.81
12178;BME280;6152;48.728;9.256;2023-03-14T09:36:56;95264.94;;;15.08;82.43
12178;BME280;6152;48.728;9.256;2023-03-14T09:39:22;95266.50;;;15.96;76.34
12178;BME280;6152;48.728;9.256;2023-03-14T09:41:50;95263.13;;;15.80;67.50
12178;BME280;6152;48.728;9.256;2023-03-14T09:44:30;95273.72;;;15.31;70.24
12178;BME280;6152;48.728;9.256;2023-03-14T09:47:03;95262.13;;;14.45;74.82
12178;BME280;6152;48.728;9.256;2023-03-14T09:49:41;95276.34;;;13.84;81.56
12178;BME280;6152;48.728;9.256;2023-03-14T09:54:50;95280.53;;;13.35;87.28
12178;BME280;6152;48.728;9.256;2023-03-14T09:57:19;95278.28;;;12.97;91.89
12178;BME280;6152;48.728;9.256;2023-03-14T09:59:47;95284.00;;;12.75;93.77
12178;BME280;6152;48.728;9.256;2023-03-14T10:02:26;95279.38;;;12.33;98.42
12178;BME280;6152;48.728;9.256;2023-03-14T10:04:54;95283.16;;;12.21;98.77
12178;BME280;6152;48.728;9.256;2023-03-14T10:07:31;95283.31;;;12.20;100.00
12178;BME280;6152;48.728;9.256;2023-03-14T10:09:58;95276.06;;;12.13;100.00
12178;BME280;6152;48.728;9.256;2023-03-14T10:12:33;95274.28;;;12.14;100.00
12178;BME280;6152;48.728;9.256;2023-03-14T10:15:13;95273.91;;;12.62;98.45
12178;BME280;6152;48.728;9.256;2023-03-14T10:17:50;95266.34;;;13.72;92.56
12178;BME280;6152;48.728;9.256;2023-03-14T10:20:31;95258.34;;;15.91;70.85
12178;BME280;6152;48.728;9.256;2023-03-14T10:23:22;95257.44;;;17.87;58.11
12178;BME280;6152;48.728;9.256;2023-03-14T10:26:13;95242.66;;;19.28;51.05
12178;BME280;6152;48.728;9.256;2023-03-14T10:28:41;95243.84;;;19.47;49.31
12178;BME280;6152;48.728;9.256;2023-03-14T10:31:08;95238.19;;;19.01;48.68
12178;BME280;6152;48.728;9.256;2023-03-14T10:33:37;95240.44;;;18.04;50.24
12178;BME280;6152;48.728;9.256;2023-03-14T10:36:19;95236.72;;;17.40;53.07
12178;BME280;6152;48.728;9.256;2023-03-14T10:38:46;95238.44;;;16.05;57.47
12178;BME280;6152;48.728;9.256;2023-03-14T10:41:30;95233.50;;;15.16;63.71
12178;BME280;6152;48.728;9.256;2023-03-14T10:44:00;95239.91;;;14.57;69.21
12178;BME280;6152;48.728;9.256;2023-03-14T10:46:31;95240.69;;;14.41;73.85
12178;BME280;6152;48.728;9.256;2023-03-14T10:48:58;95230.81;;;14.11;74.94
12178;BME280;6152;48.728;9.256;2023-03-14T10:51:28;95238.91;;;13.84;81.29
12178;BME280;6152;48.728;9.256;2023-03-14T10:54:00;95250.63;;;13.63;79.40
12178;BME280;6152;48.728;9.256;2023-03-14T10:56:33;95245.63;;;13.44;82.30
12178;BME280;6152;48.728;9.256;2023-03-14T10:58:59;95240.56;;;12.91;84.67
12178;BME280;6152;48.728;9.256;2023-03-14T11:07:14;95254.88;;;12.26;100.00
12178;BME280;6152;48.728;9.256;2023-03-14T11:09:52;95261.50;;;12.03;100.00
12178;BME280;6152;48.728;9.256;2023-03-14T11:20:51;95263.38;;;11.83;100.00
12178;BME280;6152;48.728;9.256;2023-03-14T11:23:23;95278.25;;;11.73;100.00
12178;BME280;6152;48.728;9.256;2023-03-14T11:28:52;95285.25;;;11.63;100.00
12178;BME280;6152;48.728;9.256;2023-03-14T11:31:31;95281.34;;;11.49;100.00
12178;BME280;6152;48.728;9.256;2023-03-14T11:37:04;95287.28;;;11.32;100.00
12178;BME280;6152;48.728;9.256;2023-03-14T11:39:39;95292.50;;;11.32;100.00
12178;BME280;6152;48.728;9.256;2023-03-14T11:42:12;95291.03;;;11.20;100.00
12178;BME280;6152;48.728;9.256;2023-03-14T11:44:42;95295.09;;;11.32;100.00
12178;BME280;6152;48.728;9.256;2023-03-14T11:47:31;95299.34;;;11.33;100.00
12178;BME280;6152;48.728;9.256;2023-03-14T11:50:15;95290.34;;;11.18;100.00
12178;BME280;6152;48.728;9.256;2023-03-14T11:52:50;95309.28;;;11.01;100.00
12178;BME280;6152;48.728;9.256;2023-03-14T11:57:46;95314.63;;;10.90;100.00
12178;BME280;6152;48.728;9.256;2023-03-14T12:00:24;95320.25;;;10.95;100.00
12178;BME280;6152;48.728;9.256;2023-03-14T12:03:12;95313.97;;;10.88;100.00
12178;BME280;6152;48.728;9.256;2023-03-14T12:08:38;95333.13;;;11.06;100.00
12178;BME280;6152;48.728;9.256;2023-03-14T12:11:21;95335.56;;;11.17;100.00
12178;BME280;6152;48.728;9.256;2023-03-14T12:13:52;95344.50;;;11.05;100.00
12178;BME280;6152;48.728;9.256;2023-03-14T12:18:51;95352.06;;;10.89;100.00
12178;BME280;6152;48.728;9.256;2023-03-14T12:21:18;95359.44;;;10.84;100.00
12178;BME280;6152;48.728;9.256;2023-03-14T12:23:53;95364.66;;;10.74;100.00
12178;BME280;6152;48.728;9.256;2023-03-14T12:26:49;95370.69;;;10.75;100.00
12178;BME280;6152;48.728;9.256;2023-03-14T12:29:17;95381.22;;;10.73;100.00
12178;BME280;6152;48.728;9.256;2023-03-14T12:31:48;95394.22;;;10.83;100.00
12178;BME280;6152;48.728;9.256;2023-03-14T12:42:38;95435.72;;;12.07;100.00
12178;BME280;6152;48.728;9.256;2023-03-14T12:45:39;95465.94;;;11.91;96.86
12178;BME280;6152;48.728;9.256;2023-03-14T12:48:18;95473.31;;;12.05;97.54
12178;BME280;6152;48.728;9.256;2023-03-14T12:50:56;95468.94;;;12.05;92.95
12178;BME280;6152;48.728;9.256;2023-03-14T12:56:28;95481.56;;;13.19;77.35
12178;BME280;6152;48.728;9.256;2023-03-14T13:04:45;95530.97;;;12.76;68.58
12178;BME280;6152;48.728;9.256;2023-03-14T13:12:55;95556.22;;;11.73;61.75
12178;BME280;6152;48.728;9.256;2023-03-14T13:15:27;95565.81;;;11.43;64.40
12178;BME280;6152;48.728;9.256;2023-03-14T13:18:02;95562.38;;;11.43;63.99
12178;BME280;6152;48.728;9.256;2023-03-14T13:20:51;95579.50;;;11.26;63.81
12178;BME280;6152;48.728;9.256;2023-03-14T13:23:23;95572.63;;;11.25;62.59
12178;BME280;6152;48.728;9.256;2023-03-14T13:25:49;95597.84;;;11.34;60.44
12178;BME280;6152;48.728;9.256;2023-03-14T13:28:16;95595.84;;;11.47;61.91
12178;BME280;6152;48.728;9.256;2023-03-14T13:30:45;95625.00;;;11.41;58.71
12178;BME280;6152;48.728;9.256;2023-03-14T13:33:22;95608.22;;;11.05;58.44
12178;BME280;6152;48.728;9.256;2023-03-14T13:35:56;95623.03;;;10.75;56.18
12178;BME280;6152;48.728;9.256;2023-03-14T13:38:27;95674.28;;;10.53;56.47
12178;BME280;6152;48.728;9.256;2023-03-14T13:40:59;95664.75;;;10.43;58.08
12178;BME280;6152;48.728;9.256;2023-03-14T13:43:30;95665.59;;;10.23;57.23
12178;BME280;6152;48.728;9.256;2023-03-14T13:46:04;95703.28;;;10.17;58.56
12178;BME280;6152;48.728;9.256;2023-03-14T13:48:33;95698.34;;;10.14;56.75
12178;BME280;6152;48.728;9.256;2023-03-14T13:51:06;95697.09;;;9.97;56.06
12178;BME280;6152;48.728;9.256;2023-03-14T13:53:46;95714.03;;;9.81;57.92
12178;BME280;6152;48.728;9.256;2023-03-14T13:56:13;95725.28;;;9.59;58.04
12178;BME280;6152;48.728;9.256;2023-03-14T13:58:40;95734.16;;;9.45;59.59
12178;BME280;6152;48.728;9.256;2023-03-14T14:01:20;95726.13;;;9.59;60.39
12178;BME280;6152;48.728;9.256;2023-03-14T14:03:50;95734.16;;;9.68;59.10
12178;BME280;6152;48.728;9.256;2023-03-14T14:06:37;95738.41;;;9.46;56.30
12178;BME280;6152;48.728;9.256;2023-03-14T14:09:24;95756.13;;;9.41;54.29
12178;BME280;6152;48.728;9.256;2023-03-14T14:12:03;95762.75;;;9.23;55.10
12178;BME280;6152;48.728;9.256;2023-03-14T14:14:44;95771.13;;;9.16;56.07
12178;BME280;6152;48.728;9.256;2023-03-14T14:17:15;95779.25;;;9.22;54.73
12178;BME280;6152;48.728;9.256;2023-03-14T14:19:44;95800.97;;;9.21;54.18